sensor_id;sensor_type;location;lat;lon;timestamp;pressure;altitude;pressure_sealevel;temperature;humidity
67434;BME280;54305;47.950;6.572;2023-04-25T00:00:13;93791.28;;;5.50;100.00
67434;BME280;54305;47.950;6.572;2023-04-25T00:02:38;93790.78;;;5.47;100.00
67434;BME280;54305;47.950;6.572;2023-04-25T00:05:04;93791.88;;;5.44;100.00
67434;BME280;54305;47.950;6.572;2023-04-25T00:07:29;93787.31;;;5.38;100.00
67434;BME280;54305;47.950;6.572;2023-04-25T00:09:56;93777.97;;;5.28;100.00
67434;BME280;54305;47.950;6.572;2023-04-25T00:12:21;93785.13;;;5.34;100.00
67434;BME280;54305;47.950;6.572;2023-04-25T00:14:47;93778.81;;;5.19;100.00
67434;BME280;54305;47.950;6.572;2023-04-25T00:17:14;93774.69;;;4.99;100.00
67434;BME280;54305;47.950;6.572;2023-04-25T00:19:40;93779.84;;;4.99;100.00
67434;BME280;54305;47.950;6.572;2023-04-25T00:22:05;93770.50;;;4.98;100.00
67434;BME280;54305;47.950;6.572;2023-04-25T00:24:30;93772.88;;;4.82;100.00
67434;BME280;54305;47.950;6.572;2023-04-25T00:26:56;93776.69;;;4.78;100.00
67434;BME280;54305;47.950;6.572;2023-04-25T00:29:21;93774.94;;;4.69;100.00
67434;BME280;54305;47.950;6.572;2023-04-25T00:31:46;93771.97;;;4.64;100.00
67434;BME280;54305;47.950;6.572;2023-04-25T00:34:11;93774.84;;;4.42;100.00
67434;BME280;54305;47.950;6.572;2023-04-25T00:36:37;93772.44;;;4.40;100.00
67434;BME280;54305;47.950;6.572;2023-04-25T00:39:03;93770.25;;;4.36;100.00
67434;BME280;54305;47.950;6.572;2023-04-25T00:41:29;93770.41;;;4.25;100.00
67434;BME280;54305;47.950;6.572;2023-04-25T00:43:55;93763.50;;;4.16;100.00
67434;BME280;54305;47.950;6.572;2023-04-25T00:46:21;93769.31;;;4.27;100.00
67434;BME280;54305;47.950;6.572;2023-04-25T00:48:46;93776.50;;;4.14;100.00
67434;BME280;54305;47.950;6.572;2023-04-25T00:51:14;93767.81;;;4.34;100.00
67434;BME280;54305;47.950;6.572;2023-04-25T00:53:40;93758.84;;;4.48;100.00
67434;BME280;54305;47.950;6.572;2023-04-25T00:56:06;93765.75;;;4.57;100.00
67434;BME280;54305;47.950;6.572;2023-04-25T00:58:31;93757.28;;;4.74;100.00
67434;BME280;54305;47.950;6.572;2023-04-25T01:00:57;93753.75;;;4.75;100.00
67434;BME280;54305;47.950;6.572;2023-04-25T01:03:22;93745.75;;;4.68;100.00
67434;BME280;54305;47.950;6.572;2023-04-25T01:05:47;93749.03;;;4.70;100.00
67434;BME280;54305;47.950;6.572;2023-04-25T01:08:13;93741.81;;;4.74;100.00
67434;BME280;54305;47.950;6.572;2023-04-25T01:10:39;93743.28;;;4.76;100.00
67434;BME280;54305;47.950;6.572;2023-04-25T01:13:04;93740.44;;;4.79;100.00
67434;BME280;54305;47.950;6.572;2023-04-25T01:15:30;93746.97;;;4.74;100.00
67434;BME280;54305;47.950;6.572;2023-04-25T01:17:55;93752.38;;;4.71;100.00
67434;BME280;54305;47.950;6.572;2023-04-25T01:20:22;93745.72;;;4.78;100.00
67434;BME280;54305;47.950;6.572;2023-04-25T01:22:51;93736.25;;;4.69;100.00
67434;BME280;54305;47.950;6.572;2023-04-25T01:25:17;93740.63;;;4.59;100.00
67434;BME280;54305;47.950;6.572;2023-04-25T01:27:43;93741.03;;;4.54;100.00
67434;BME280;54305;47.950;6.572;2023-04-25T01:30:08;93742.13;;;4.52;100.00
67434;BME280;54305;47.950;6.572;2023-04-25T01:32:34;93743.09;;;4.51;100.00
67434;BME280;54305;47.950;6.572;2023-04-25T01:35:06;93731.72;;;4.44;100.00
67434;BME280;54305;47.950;6.572;2023-04-25T01:37:38;93738.53;;;4.26;100.00
67434;BME280;54305;47.950;6.572;2023-04-25T01:40:04;93737.97;;;4.32;100.00
67434;BME280;54305;47.950;6.572;2023-04-25T01:42:33;93735.56;;;4.30;100.00
67434;BME280;54305;47.950;6.572;2023-04-25T01:44:59;93731.59;;;4.36;100.00
67434;BME280;54305;47.950;6.572;2023-04-25T01:47:24;93734.91;;;4.00;100.00
67434;BME280;54305;47.950;6.572;2023-04-25T01:49:49;93728.25;;;4.07;100.00
67434;BME280;54305;47.950;6.572;2023-04-25T01:52:15;93724.72;;;4.08;100.00
67434;BME280;54305;47.950;6.572;2023-04-25T01:54:40;93719.56;;;4.08;100.00
67434;BME280;54305;47.950;6.572;2023-04-25T01:57:09;93724.19;;;4.14;100.00
67434;BME280;54305;47.950;6.572;2023-04-25T01:59:34;93725.81;;;4.15;100.00
67434;BME280;54305;47.950;6.572;2023-04-25T02:01:59;93718.47;;;4.20;100.00
67434;BME280;54305;47.950;6.572;2023-04-25T02:04:28;93714.38;;;4.27;100.00
67434;BME280;54305;47.950;6.572;2023-04-25T02:06:53;93701.41;;;4.19;100.00
67434;BME280;54305;47.950;6.572;2023-04-25T02:09:19;93710.06;;;4.18;100.00
67434;BME280;54305;47.950;6.572;2023-04-25T02:11:45;93695.97;;;4.12;100.00
67434;BME280;54305;47.950;6.572;2023-04-25T02:14:10;93698.66;;;4.20;100.00
67434;BME280;54305;47.950;6.572;2023-04-25T02:16:35;93697.06;;;4.10;100.00
67434;BME280;54305;47.950;6.572;2023-04-25T02:19:00;93686.34;;;4.24;100.00
67434;BME280;54305;47.950;6.572;2023-04-25T02:21:25;93691.59;;;4.32;100.00
67434;BME280;54305;47.950;6.572;2023-04-25T02:23:51;93681.28;;;4.32;100.00
67434;BME280;54305;47.950;6.572;2023-04-25T02:26:17;93676.16;;;4.13;100.00
67434;BME280;54305;47.950;6.572;2023-04-25T02:28:42;93681.31;;;4.13;100.00
67434;BME280;54305;47.950;6.572;2023-04-25T02:31:07;93672.94;;;4.11;100.00
67434;BME280;54305;47.950;6.572;2023-04-25T02:33:32;93671.56;;;4.07;100.00
67434;BME280;54305;47.950;6.572;2023-04-25T02:35:58;93680.00;;;3.99;100.00
67434;BME280;54305;47.950;6.572;2023-04-25T02:38:23;93672.69;;;3.95;100.00
67434;BME280;54305;47.950;6.572;2023-04-25T02:40:48;93675.97;;;3.87;100.00
67434;BME280;54305;47.950;6.572;2023-04-25T02:43:13;93684.63;;;3.86;100.00
67434;BME280;54305;47.950;6.572;2023-04-25T02:45:38;93683.53;;;3.89;100.00
67434;BME280;54305;47.950;6.572;2023-04-25T02:48:04;93690.56;;;3.96;100.00
67434;BME280;54305;47.950;6.572;2023-04-25T02:50:29;93669.16;;;3.96;100.00
67434;BME280;54305;47.950;6.572;2023-04-25T02:52:55;93670.78;;;3.97;100.00
67434;BME280;54305;47.950;6.572;2023-04-25T02:55:20;93663.97;;;4.05;100.00
67434;BME280;54305;47.950;6.572;2023-04-25T02:57:45;93662.06;;;4.17;100.00
67434;BME280;54305;47.950;6.572;2023-04-25T03:00:11;93660.69;;;4.22;100.00
67434;BME280;54305;47.950;6.572;2023-04-25T03:02:36;93666.13;;;4.29;100.00
67434;BME280;54305;47.950;6.572;2023-04-25T03:05:02;93663.34;;;4.40;100.00
67434;BME280;54305;47.950;6.572;2023-04-25T03:07:28;93657.09;;;4.42;100.00
67434;BME280;54305;47.950;6.572;2023-04-25T03:09:53;93650.72;;;4.46;100.00
67434;BME280;54305;47.950;6.572;2023-04-25T03:12:21;93669.28;;;4.50;100.00
67434;BME280;54305;47.950;6.572;2023-04-25T03:14:46;93685.44;;;4.79;100.00
67434;BME280;54305;47.950;6.572;2023-04-25T03:17:11;93686.53;;;4.86;100.00
67434;BME280;54305;47.950;6.572;2023-04-25T03:19:36;93694.41;;;4.75;100.00
67434;BME280;54305;47.950;6.572;2023-04-25T03:22:02;93698.41;;;4.60;100.00
67434;BME280;54305;47.950;6.572;2023-04-25T03:24:30;93692.94;;;4.45;100.00
67434;BME280;54305;47.950;6.572;2023-04-25T03:26:55;93700.28;;;4.31;100.00
67434;BME280;54305;47.950;6.572;2023-04-25T03:29:21;93700.00;;;4.34;100.00
67434;BME280;54305;47.950;6.572;2023-04-25T03:31:49;93696.75;;;4.32;100.00
67434;BME280;54305;47.950;6.572;2023-04-25T03:34:14;93699.63;;;4.29;100.00
67434;BME280;54305;47.950;6.572;2023-04-25T03:36:40;93697.88;;;4.20;100.00
67434;BME280;54305;47.950;6.572;2023-04-25T03:39:05;93695.84;;;4.14;100.00
67434;BME280;54305;47.950;6.572;2023-04-25T03:41:31;93689.22;;;4.02;100.00
67434;BME280;54305;47.950;6.572;2023-04-25T03:43:56;93690.84;;;3.84;100.00
67434;BME280;54305;47.950;6.572;2023-04-25T03:46:21;93675.00;;;3.79;100.00
67434;BME280;54305;47.950;6.572;2023-04-25T03:48:47;93681.94;;;3.69;100.00
67434;BME280;54305;47.950;6.572;2023-04-25T03:51:12;93690.88;;;3.65;100.00
67434;BME280;54305;47.950;6.572;2023-04-25T03:53:37;93678.94;;;3.64;100.00
67434;BME280;54305;47.950;6.572;2023-04-25T03:56:02;93678.94;;;3.64;100.00
67434;BME280;54305;47.950;6.572;2023-04-25T03:58:28;93675.81;;;3.70;100.00
67434;BME280;54305;47.950;6.572;2023-04-25T04:00:53;93683.84;;;3.67;100.00
67434;BME280;54305;47.950;6.572;2023-04-25T04:03:18;93677.06;;;3.66;100.00
67434;BME280;54305;47.950;6.572;2023-04-25T04:05:43;93677.19;;;3.74;100.00
67434;BME280;54305;47.950;6.572;2023-04-25T04:08:10;93677.75;;;3.77;100.00
67434;BME280;54305;47.950;6.572;2023-04-25T04:10:35;93676.34;;;3.83;100.00
67434;BME280;54305;47.950;6.572;2023-04-25T04:13:00;93673.78;;;3.83;100.00
67434;BME280;54305;47.950;6.572;2023-04-25T04:15:25;93670.25;;;3.84;100.00
67434;BME280;54305;47.950;6.572;2023-04-25T04:17:51;93664.56;;;3.90;100.00
67434;BME280;54305;47.950;6.572;2023-04-25T04:20:16;93665.63;;;3.97;100.00
67434;BME280;54305;47.950;6.572;2023-04-25T04:22:41;93661.19;;;3.99;100.00
67434;BME280;54305;47.950;6.572;2023-04-25T04:25:06;93656.69;;;4.01;100.00
67434;BME280;54305;47.950;6.572;2023-04-25T04:27:32;93657.06;;;4.06;100.00
67434;BME280;54305;47.950;6.572;2023-04-25T04:29:57;93661.00;;;4.10;100.00
67434;BME280;54305;47.950;6.572;2023-04-25T04:32:22;93666.81;;;4.12;100.00
67434;BME280;54305;47.950;6.572;2023-04-25T04:34:48;93667.22;;;4.17;100.00
67434;BME280;54305;47.950;6.572;2023-04-25T04:37:13;93675.06;;;4.25;100.00
67434;BME280;54305;47.950;6.572;2023-04-25T04:39:39;93682.53;;;4.28;100.00
67434;BME280;54305;47.950;6.572;2023-04-25T04:42:05;93675.59;;;4.28;100.00
67434;BME280;54305;47.950;6.572;2023-04-25T04:44:31;93683.75;;;4.24;100.00
67434;BME280;54305;47.950;6.572;2023-04-25T04:46:59;93681.31;;;4.22;100.00
67434;BME280;54305;47.950;6.572;2023-04-25T04:49:24;93690.25;;;4.28;100.00
67434;BME280;54305;47.950;6.572;2023-04-25T04:51:50;93689.75;;;4.15;100.00
67434;BME280;54305;47.950;6.572;2023-04-25T04:54:15;93698.69;;;4.11;100.00
67434;BME280;54305;47.950;6.572;2023-04-25T04:56:40;93701.28;;;4.11;100.00
67434;BME280;54305;47.950;6.572;2023-04-25T04:59:06;93703.59;;;4.14;100.00
67434;BME280;54305;47.950;6.572;2023-04-25T05:01:32;93704.91;;;4.18;100.00
67434;BME280;54305;47.950;6.572;2023-04-25T05:03:57;93702.31;;;4.18;100.00
67434;BME280;54305;47.950;6.572;2023-04-25T05:06:25;93707.63;;;4.26;100.00
67434;BME280;54305;47.950;6.572;2023-04-25T05:08:53;93708.31;;;4.28;100.00
67434;BME280;54305;47.950;6.572;2023-04-25T05:11:19;93713.84;;;4.33;100.00
67434;BME280;54305;47.950;6.572;2023-04-25T05:13:44;93713.56;;;4.36;100.00
67434;BME280;54305;47.950;6.572;2023-04-25T05:16:10;93711.94;;;4.35;100.00
67434;BME280;54305;47.950;6.572;2023-04-25T05:18:35;93715.22;;;4.27;100.00
67434;BME280;54305;47.950;6.572;2023-04-25T05:21:01;93715.22;;;4.18;100.00
67434;BME280;54305;47.950;6.572;2023-04-25T05:23:26;93719.53;;;4.27;100.00
67434;BME280;54305;47.950;6.572;2023-04-25T05:25:52;93724.16;;;4.23;100.00
67434;BME280;54305;47.950;6.572;2023-04-25T05:28:18;93729.59;;;4.30;100.00
67434;BME280;54305;47.950;6.572;2023-04-25T05:30:43;93729.16;;;4.34;100.00
67434;BME280;54305;47.950;6.572;2023-04-25T05:33:08;93729.84;;;4.27;100.00
67434;BME280;54305;47.950;6.572;2023-04-25T05:35:33;93736.66;;;4.28;100.00
67434;BME280;54305;47.950;6.572;2023-04-25T05:37:59;93745.03;;;4.30;100.00
67434;BME280;54305;47.950;6.572;2023-04-25T05:40:24;93743.72;;;4.16;100.00
67434;BME280;54305;47.950;6.572;2023-04-25T05:42:49;93746.81;;;4.20;100.00
67434;BME280;54305;47.950;6.572;2023-04-25T05:45:15;93734.50;;;4.14;100.00
67434;BME280;54305;47.950;6.572;2023-04-25T05:47:42;93747.47;;;4.22;100.00
67434;BME280;54305;47.950;6.572;2023-04-25T05:50:07;93745.59;;;4.24;100.00
67434;BME280;54305;47.950;6.572;2023-04-25T05:52:33;93750.31;;;4.28;100.00
67434;BME280;54305;47.950;6.572;2023-04-25T05:54:58;93755.09;;;4.23;100.00
67434;BME280;54305;47.950;6.572;2023-04-25T05:57:25;93760.94;;;4.16;100.00
67434;BME280;54305;47.950;6.572;2023-04-25T05:59:50;93752.53;;;4.14;100.00
67434;BME280;54305;47.950;6.572;2023-04-25T06:02:16;93754.31;;;4.04;100.00
67434;BME280;54305;47.950;6.572;2023-04-25T06:04:41;93749.66;;;4.17;100.00
67434;BME280;54305;47.950;6.572;2023-04-25T06:07:06;93747.78;;;4.19;100.00
67434;BME280;54305;47.950;6.572;2023-04-25T06:09:32;93751.69;;;4.23;100.00
67434;BME280;54305;47.950;6.572;2023-04-25T06:11:57;93757.78;;;4.22;100.00
67434;BME280;54305;47.950;6.572;2023-04-25T06:14:22;93773.38;;;4.30;100.00
67434;BME280;54305;47.950;6.572;2023-04-25T06:16:47;93774.06;;;4.22;100.00
67434;BME280;54305;47.950;6.572;2023-04-25T06:19:13;93769.47;;;4.16;100.00
67434;BME280;54305;47.950;6.572;2023-04-25T06:21:38;93781.69;;;4.24;100.00
67434;BME280;54305;47.950;6.572;2023-04-25T06:24:03;93775.31;;;4.28;100.00
67434;BME280;54305;47.950;6.572;2023-04-25T06:26:29;93778.16;;;4.25;100.00
67434;BME280;54305;47.950;6.572;2023-04-25T06:28:54;93779.22;;;4.22;100.00
67434;BME280;54305;47.950;6.572;2023-04-25T06:31:19;93789.25;;;4.35;100.00
67434;BME280;54305;47.950;6.572;2023-04-25T06:33:44;93788.84;;;4.30;100.00
67434;BME280;54305;47.950;6.572;2023-04-25T06:36:10;93791.81;;;4.25;100.00
67434;BME280;54305;47.950;6.572;2023-04-25T06:38:35;93788.44;;;4.25;100.00
67434;BME280;54305;47.950;6.572;2023-04-25T06:41:00;93795.34;;;4.24;100.00
67434;BME280;54305;47.950;6.572;2023-04-25T06:43:26;93795.22;;;4.26;100.00
67434;BME280;54305;47.950;6.572;2023-04-25T06:45:51;93796.44;;;4.22;100.00
67434;BME280;54305;47.950;6.572;2023-04-25T06:48:16;93793.88;;;4.22;100.00
67434;BME280;54305;47.950;6.572;2023-04-25T06:50:41;93804.75;;;4.06;100.00
67434;BME280;54305;47.950;6.572;2023-04-25T06:53:07;93800.78;;;4.12;100.00
67434;BME280;54305;47.950;6.572;2023-04-25T06:55:33;93800.13;;;4.10;100.00
67434;BME280;54305;47.950;6.572;2023-04-25T06:57:59;93801.19;;;4.17;100.00
67434;BME280;54305;47.950;6.572;2023-04-25T07:00:25;93809.72;;;4.27;100.00
67434;BME280;54305;47.950;6.572;2023-04-25T07:02:50;93806.34;;;4.36;100.00
67434;BME280;54305;47.950;6.572;2023-04-25T07:05:16;93801.75;;;4.30;100.00
67434;BME280;54305;47.950;6.572;2023-04-25T07:07:41;93817.75;;;4.43;100.00
67434;BME280;54305;47.950;6.572;2023-04-25T07:10:06;93809.84;;;4.54;100.00
67434;BME280;54305;47.950;6.572;2023-04-25T07:12:32;93819.63;;;4.41;100.00
67434;BME280;54305;47.950;6.572;2023-04-25T07:14:57;93822.19;;;4.41;100.00
67434;BME280;54305;47.950;6.572;2023-04-25T07:17:25;93816.38;;;4.39;100.00
67434;BME280;54305;47.950;6.572;2023-04-25T07:19:51;93818.28;;;4.46;100.00
67434;BME280;54305;47.950;6.572;2023-04-25T07:22:16;93817.44;;;4.46;100.00
67434;BME280;54305;47.950;6.572;2023-04-25T07:24:42;93822.88;;;4.52;100.00
67434;BME280;54305;47.950;6.572;2023-04-25T07:27:07;93825.28;;;4.63;100.00
67434;BME280;54305;47.950;6.572;2023-04-25T07:29:33;93827.75;;;4.65;100.00
67434;BME280;54305;47.950;6.572;2023-04-25T07:32:01;93829.09;;;4.69;100.00
67434;BME280;54305;47.950;6.572;2023-04-25T07:34:26;93832.84;;;4.84;100.00
67434;BME280;54305;47.950;6.572;2023-04-25T07:36:52;93834.88;;;4.90;100.00
67434;BME280;54305;47.950;6.572;2023-04-25T07:39:25;93842.09;;;4.86;100.00
67434;BME280;54305;47.950;6.572;2023-04-25T07:41:50;93839.75;;;4.93;100.00
67434;BME280;54305;47.950;6.572;2023-04-25T07:44:15;93856.47;;;4.89;100.00
67434;BME280;54305;47.950;6.572;2023-04-25T07:46:41;93858.91;;;4.81;100.00
67434;BME280;54305;47.950;6.572;2023-04-25T07:49:06;93860.56;;;4.82;100.00
67434;BME280;54305;47.950;6.572;2023-04-25T07:51:35;93865.59;;;4.74;100.00
67434;BME280;54305;47.950;6.572;2023-04-25T07:54:01;93870.59;;;4.85;100.00
67434;BME280;54305;47.950;6.572;2023-04-25T07:56:26;93865.16;;;4.78;100.00
67434;BME280;54305;47.950;6.572;2023-04-25T07:58:51;93868.69;;;4.77;100.00
67434;BME280;54305;47.950;6.572;2023-04-25T08:01:16;93880.09;;;4.75;100.00
67434;BME280;54305;47.950;6.572;2023-04-25T08:03:42;93886.88;;;4.76;100.00
67434;BME280;54305;47.950;6.572;2023-04-25T08:06:07;93885.56;;;4.72;100.00
67434;BME280;54305;47.950;6.572;2023-04-25T08:08:33;93882.56;;;4.76;100.00
67434;BME280;54305;47.950;6.572;2023-04-25T08:10:58;93883.84;;;5.09;100.00
67434;BME280;54305;47.950;6.572;2023-04-25T08:13:24;93888.63;;;5.50;100.00
67434;BME280;54305;47.950;6.572;2023-04-25T08:15:49;93889.31;;;5.79;100.00
67434;BME280;54305;47.950;6.572;2023-04-25T08:18:14;93877.25;;;5.97;100.00
67434;BME280;54305;47.950;6.572;2023-04-25T08:20:40;93884.41;;;6.30;100.00
67434;BME280;54305;47.950;6.572;2023-04-25T08:23:05;93881.75;;;6.22;100.00
67434;BME280;54305;47.950;6.572;2023-04-25T08:25:31;93889.94;;;6.17;100.00
67434;BME280;54305;47.950;6.572;2023-04-25T08:27:59;93894.75;;;6.30;100.00
67434;BME280;54305;47.950;6.572;2023-04-25T08:30:27;93893.06;;;6.56;100.00
67434;BME280;54305;47.950;6.572;2023-04-25T08:32:53;93886.03;;;6.66;100.00
67434;BME280;54305;47.950;6.572;2023-04-25T08:35:18;93896.38;;;6.31;100.00
67434;BME280;54305;47.950;6.572;2023-04-25T08:37:43;93898.03;;;5.78;100.00
67434;BME280;54305;47.950;6.572;2023-04-25T08:40:11;93899.13;;;5.75;100.00
67434;BME280;54305;47.950;6.572;2023-04-25T08:42:36;93898.09;;;5.59;100.00
67434;BME280;54305;47.950;6.572;2023-04-25T08:45:02;93899.44;;;5.63;100.00
67434;BME280;54305;47.950;6.572;2023-04-25T08:47:28;93892.25;;;5.93;100.00
67434;BME280;54305;47.950;6.572;2023-04-25T08:49:56;93896.50;;;6.12;100.00
67434;BME280;54305;47.950;6.572;2023-04-25T08:52:23;93887.06;;;6.38;100.00
67434;BME280;54305;47.950;6.572;2023-04-25T08:54:49;93890.91;;;6.69;100.00
67434;BME280;54305;47.950;6.572;2023-04-25T08:57:16;93894.22;;;6.61;100.00
67434;BME280;54305;47.950;6.572;2023-04-25T08:59:42;93891.22;;;6.66;100.00
67434;BME280;54305;47.950;6.572;2023-04-25T09:02:11;93894.78;;;6.65;100.00
67434;BME280;54305;47.950;6.572;2023-04-25T09:04:39;93905.03;;;6.57;100.00
67434;BME280;54305;47.950;6.572;2023-04-25T09:07:05;93901.94;;;6.36;100.00
67434;BME280;54305;47.950;6.572;2023-04-25T09:09:31;93915.03;;;6.07;100.00
67434;BME280;54305;47.950;6.572;2023-04-25T09:11:56;93925.31;;;6.17;100.00
67434;BME280;54305;47.950;6.572;2023-04-25T09:14:22;93928.28;;;6.22;100.00
67434;BME280;54305;47.950;6.572;2023-04-25T09:21:51;93930.44;;;7.65;100.00
67434;BME280;54305;47.950;6.572;2023-04-25T09:27:03;93926.84;;;7.58;100.00
67434;BME280;54305;47.950;6.572;2023-04-25T09:29:29;93936.88;;;7.61;100.00
67434;BME280;54305;47.950;6.572;2023-04-25T09:32:04;93941.31;;;8.02;100.00
67434;BME280;54305;47.950;6.572;2023-04-25T09:34:39;93947.44;;;7.93;100.00
67434;BME280;54305;47.950;6.572;2023-04-25T09:37:04;93944.63;;;7.78;100.00
67434;BME280;54305;47.950;6.572;2023-04-25T09:39:30;93963.09;;;7.32;100.00
67434;BME280;54305;47.950;6.572;2023-04-25T09:41:57;93968.09;;;6.56;100.00
67434;BME280;54305;47.950;6.572;2023-04-25T09:44:24;93975.59;;;6.32;100.00
67434;BME280;54305;47.950;6.572;2023-04-25T09:46:49;93977.44;;;6.39;100.00
67434;BME280;54305;47.950;6.572;2023-04-25T09:49:19;93978.06;;;6.24;100.00
67434;BME280;54305;47.950;6.572;2023-04-25T09:51:54;93980.00;;;6.22;100.00
67434;BME280;54305;47.950;6.572;2023-04-25T09:54:20;93978.72;;;5.99;100.00
67434;BME280;54305;47.950;6.572;2023-04-25T09:56:46;93979.41;;;6.28;100.00
67434;BME280;54305;47.950;6.572;2023-04-25T09:59:13;93978.63;;;6.45;100.00
67434;BME280;54305;47.950;6.572;2023-04-25T10:01:39;93972.53;;;6.81;100.00
67434;BME280;54305;47.950;6.572;2023-04-25T10:04:05;93978.66;;;7.58;100.00
67434;BME280;54305;47.950;6.572;2023-04-25T10:06:31;93978.25;;;7.45;100.00
67434;BME280;54305;47.950;6.572;2023-04-25T10:08:59;93983.44;;;7.45;100.00
67434;BME280;54305;47.950;6.572;2023-04-25T10:11:25;93984.03;;;7.39;100.00
67434;BME280;54305;47.950;6.572;2023-04-25T10:13:51;93982.69;;;7.35;100.00
67434;BME280;54305;47.950;6.572;2023-04-25T10:16:17;93979.88;;;7.46;100.00
67434;BME280;54305;47.950;6.572;2023-04-25T10:18:42;93977.84;;;7.83;100.00
67434;BME280;54305;47.950;6.572;2023-04-25T10:21:08;93977.44;;;8.21;100.00
67434;BME280;54305;47.950;6.572;2023-04-25T10:23:33;93979.09;;;8.38;100.00
67434;BME280;54305;47.950;6.572;2023-04-25T10:25:59;93975.34;;;8.90;100.00
67434;BME280;54305;47.950;6.572;2023-04-25T10:28:25;93975.72;;;9.19;100.00
67434;BME280;54305;47.950;6.572;2023-04-25T10:31:04;93974.38;;;8.83;100.00
67434;BME280;54305;47.950;6.572;2023-04-25T10:33:36;93975.38;;;8.32;100.00
67434;BME280;54305;47.950;6.572;2023-04-25T10:36:08;93971.19;;;8.14;100.00
67434;BME280;54305;47.950;6.572;2023-04-25T10:38:34;93973.91;;;7.71;100.00
67434;BME280;54305;47.950;6.572;2023-04-25T10:41:02;93978.66;;;7.58;100.00
67434;BME280;54305;47.950;6.572;2023-04-25T10:45:56;93990.72;;;7.24;100.00
67434;BME280;54305;47.950;6.572;2023-04-25T10:48:25;93993.53;;;7.13;100.00
67434;BME280;54305;47.950;6.572;2023-04-25T10:50:59;93995.97;;;6.97;100.00
67434;BME280;54305;47.950;6.572;2023-04-25T10:53:32;93994.25;;;6.88;100.00
67434;BME280;54305;47.950;6.572;2023-04-25T10:55:58;93985.97;;;7.02;100.00
67434;BME280;54305;47.950;6.572;2023-04-25T10:58:23;93996.84;;;7.66;100.00
67434;BME280;54305;47.950;6.572;2023-04-25T11:00:49;93999.72;;;8.14;100.00
67434;BME280;54305;47.950;6.572;2023-04-25T11:03:15;93993.22;;;8.93;100.00
67434;BME280;54305;47.950;6.572;2023-04-25T11:05:41;93983.28;;;8.72;100.00
67434;BME280;54305;47.950;6.572;2023-04-25T11:08:10;93986.56;;;8.98;100.00
67434;BME280;54305;47.950;6.572;2023-04-25T11:10:36;93976.38;;;9.13;100.00
67434;BME280;54305;47.950;6.572;2023-04-25T11:13:01;93982.88;;;9.65;100.00
67434;BME280;54305;47.950;6.572;2023-04-25T11:15:27;93972.16;;;9.52;100.00
67434;BME280;54305;47.950;6.572;2023-04-25T11:17:52;93975.03;;;9.01;100.00
67434;BME280;54305;47.950;6.572;2023-04-25T11:20:18;93978.09;;;8.88;100.00
67434;BME280;54305;47.950;6.572;2023-04-25T11:22:44;93975.34;;;8.74;100.00
67434;BME280;54305;47.950;6.572;2023-04-25T11:25:10;93986.63;;;8.49;100.00
67434;BME280;54305;47.950;6.572;2023-04-25T11:30:16;93977.63;;;8.02;100.00
67434;BME280;54305;47.950;6.572;2023-04-25T11:32:42;93978.56;;;7.93;100.00
67434;BME280;54305;47.950;6.572;2023-04-25T11:35:08;93986.69;;;7.98;100.00
67434;BME280;54305;47.950;6.572;2023-04-25T11:37:33;93985.13;;;8.13;100.00
67434;BME280;54305;47.950;6.572;2023-04-25T11:39:59;93976.25;;;8.49;100.00
67434;BME280;54305;47.950;6.572;2023-04-25T11:42:24;93976.38;;;9.37;100.00
67434;BME280;54305;47.950;6.572;2023-04-25T11:44:49;93966.00;;;9.45;100.00
67434;BME280;54305;47.950;6.572;2023-04-25T11:47:15;93964.34;;;9.60;100.00
67434;BME280;54305;47.950;6.572;2023-04-25T11:49:40;93970.19;;;9.70;100.00
67434;BME280;54305;47.950;6.572;2023-04-25T11:52:06;93983.88;;;9.40;100.00
67434;BME280;54305;47.950;6.572;2023-04-25T11:54:34;93978.34;;;9.11;100.00
67434;BME280;54305;47.950;6.572;2023-04-25T11:56:59;93984.44;;;8.78;100.00
67434;BME280;54305;47.950;6.572;2023-04-25T11:59:26;94001.19;;;8.16;100.00
67434;BME280;54305;47.950;6.572;2023-04-25T12:01:52;94017.78;;;7.12;100.00
67434;BME280;54305;47.950;6.572;2023-04-25T12:04:21;94033.00;;;6.35;100.00
67434;BME280;54305;47.950;6.572;2023-04-25T12:06:47;94044.69;;;6.03;100.00
67434;BME280;54305;47.950;6.572;2023-04-25T12:09:13;94045.72;;;5.64;100.00
67434;BME280;54305;47.950;6.572;2023-04-25T12:11:53;94050.22;;;5.43;100.00
67434;BME280;54305;47.950;6.572;2023-04-25T12:16:48;94066.94;;;5.10;100.00
67434;BME280;54305;47.950;6.572;2023-04-25T12:19:14;94066.09;;;5.10;100.00
67434;BME280;54305;47.950;6.572;2023-04-25T12:21:40;94068.28;;;5.05;100.00
67434;BME280;54305;47.950;6.572;2023-04-25T12:24:15;94056.06;;;5.07;100.00
67434;BME280;54305;47.950;6.572;2023-04-25T12:26:54;94050.63;;;5.48;100.00
67434;BME280;54305;47.950;6.572;2023-04-25T12:29:24;94055.09;;;5.84;100.00
67434;BME280;54305;47.950;6.572;2023-04-25T12:31:50;94039.78;;;6.63;100.00
67434;BME280;54305;47.950;6.572;2023-04-25T12:34:16;94042.41;;;7.16;100.00
67434;BME280;54305;47.950;6.572;2023-04-25T12:36:41;94039.66;;;7.52;100.00
67434;BME280;54305;47.950;6.572;2023-04-25T12:39:06;94035.59;;;7.93;100.00
67434;BME280;54305;47.950;6.572;2023-04-25T12:41:32;94030.47;;;8.01;100.00
67434;BME280;54305;47.950;6.572;2023-04-25T12:43:58;94025.94;;;8.28;100.00
67434;BME280;54305;47.950;6.572;2023-04-25T12:46:23;94037.50;;;8.42;100.00
67434;BME280;54305;47.950;6.572;2023-04-25T12:48:48;94035.19;;;8.31;100.00
67434;BME280;54305;47.950;6.572;2023-04-25T12:51:14;94035.63;;;8.60;100.00
67434;BME280;54305;47.950;6.572;2023-04-25T12:53:39;94037.41;;;9.09;100.00
67434;BME280;54305;47.950;6.572;2023-04-25T12:56:06;94038.09;;;9.59;100.00
67434;BME280;54305;47.950;6.572;2023-04-25T12:58:31;94039.22;;;9.32;100.00
67434;BME280;54305;47.950;6.572;2023-04-25T13:00:58;94033.50;;;8.97;100.00
67434;BME280;54305;47.950;6.572;2023-04-25T13:03:23;94039.88;;;9.26;100.00
67434;BME280;54305;47.950;6.572;2023-04-25T13:05:49;94035.16;;;10.10;100.00
67434;BME280;54305;47.950;6.572;2023-04-25T13:08:15;94038.69;;;10.87;100.00